sensor_id;sensor_type;location;lat;lon;timestamp;temperature;humidity
34099;DHT22;20374;49.474;10.944;2022-09-09T00:04:38;14.30;99.90
34099;DHT22;20374;49.474;10.944;2022-09-09T00:10:03;14.30;99.90
34099;DHT22;20374;49.474;10.944;2022-09-09T00:15:17;14.20;99.90
34099;DHT22;20374;49.474;10.944;2022-09-09T00:18:07;14.20;99.90
34099;DHT22;20374;49.474;10.944;2022-09-09T00:23:32;14.20;99.90
34099;DHT22;20374;49.474;10.944;2022-09-09T00:26:32;14.10;99.90
34099;DHT22;20374;49.474;10.944;2022-09-09T00:31:35;14.10;99.90
34099;DHT22;20374;49.474;10.944;2022-09-09T00:34:16;14.00;99.90
34099;DHT22;20374;49.474;10.944;2022-09-09T00:36:45;14.10;99.90
34099;DHT22;20374;49.474;10.944;2022-09-09T00:39:32;14.00;99.90
34099;DHT22;20374;49.474;10.944;2022-09-09T00:44:37;14.00;99.90
34099;DHT22;20374;49.474;10.944;2022-09-09T00:47:09;14.00;99.90
34099;DHT22;20374;49.474;10.944;2022-09-09T00:55:49;13.90;99.90
34099;DHT22;20374;49.474;10.944;2022-09-09T00:58:19;13.90;99.90
34099;DHT22;20374;49.474;10.944;2022-09-09T01:00:52;13.90;99.90
34099;DHT22;20374;49.474;10.944;2022-09-09T01:17:21;13.80;99.90
34099;DHT22;20374;49.474;10.944;2022-09-09T01:28:37;13.50;99.90
34099;DHT22;20374;49.474;10.944;2022-09-09T01:31:13;13.50;99.90
34099;DHT22;20374;49.474;10.944;2022-09-09T01:33:44;13.50;99.90
34099;DHT22;20374;49.474;10.944;2022-09-09T01:39:04;13.40;99.90
34099;DHT22;20374;49.474;10.944;2022-09-09T01:41:31;13.40;99.90
34099;DHT22;20374;49.474;10.944;2022-09-09T01:44:05;13.50;99.90
34099;DHT22;20374;49.474;10.944;2022-09-09T01:46:33;13.40;99.90
34099;DHT22;20374;49.474;10.944;2022-09-09T01:49:02;13.40;99.90
34099;DHT22;20374;49.474;10.944;2022-09-09T01:51:30;13.50;99.90
34099;DHT22;20374;49.474;10.944;2022-09-09T01:54:00;13.50;99.90
34099;DHT22;20374;49.474;10.944;2022-09-09T02:04:47;13.40;99.90
34099;DHT22;20374;49.474;10.944;2022-09-09T02:09:59;13.30;99.90
34099;DHT22;20374;49.474;10.944;2022-09-09T02:12:27;13.30;99.90
34099;DHT22;20374;49.474;10.944;2022-09-09T02:15:03;13.30;99.90
34099;DHT22;20374;49.474;10.944;2022-09-09T02:17:39;13.30;99.90
34099;DHT22;20374;49.474;10.944;2022-09-09T02:20:13;13.30;99.90
34099;DHT22;20374;49.474;10.944;2022-09-09T02:23:01;13.30;99.90
34099;DHT22;20374;49.474;10.944;2022-09-09T02:25:30;13.20;99.90
34099;DHT22;20374;49.474;10.944;2022-09-09T02:28:05;13.30;99.90
34099;DHT22;20374;49.474;10.944;2022-09-09T02:30:33;13.20;99.90
34099;DHT22;20374;49.474;10.944;2022-09-09T02:33:02;13.20;99.90
34099;DHT22;20374;49.474;10.944;2022-09-09T02:35:42;13.20;99.90
34099;DHT22;20374;49.474;10.944;2022-09-09T02:38:12;13.10;99.90
34099;DHT22;20374;49.474;10.944;2022-09-09T02:40:48;13.10;99.90
34099;DHT22;20374;49.474;10.944;2022-09-09T02:43:15;13.10;99.90
34099;DHT22;20374;49.474;10.944;2022-09-09T02:49:10;13.00;99.90
34099;DHT22;20374;49.474;10.944;2022-09-09T02:54:28;13.20;99.90
34099;DHT22;20374;49.474;10.944;2022-09-09T02:57:25;13.20;99.90
34099;DHT22;20374;49.474;10.944;2022-09-09T02:59:57;13.20;99.90
34099;DHT22;20374;49.474;10.944;2022-09-09T03:02:24;13.20;99.90
34099;DHT22;20374;49.474;10.944;2022-09-09T03:04:56;13.30;99.90
34099;DHT22;20374;49.474;10.944;2022-09-09T03:07:22;13.20;99.90
34099;DHT22;20374;49.474;10.944;2022-09-09T03:09:50;13.10;99.90
34099;DHT22;20374;49.474;10.944;2022-09-09T03:12:16;13.10;99.90
34099;DHT22;20374;49.474;10.944;2022-09-09T03:14:42;13.10;99.90
34099;DHT22;20374;49.474;10.944;2022-09-09T03:17:11;13.10;99.90
34099;DHT22;20374;49.474;10.944;2022-09-09T03:19:44;13.10;99.90
34099;DHT22;20374;49.474;10.944;2022-09-09T03:22:12;13.10;99.90
34099;DHT22;20374;49.474;10.944;2022-09-09T03:24:41;13.10;99.90
34099;DHT22;20374;49.474;10.944;2022-09-09T03:27:07;13.10;99.90
34099;DHT22;20374;49.474;10.944;2022-09-09T03:29:35;13.10;99.90
34099;DHT22;20374;49.474;10.944;2022-09-09T03:32:05;13.10;99.90
34099;DHT22;20374;49.474;10.944;2022-09-09T03:34:31;13.00;99.90
34099;DHT22;20374;49.474;10.944;2022-09-09T03:36:58;13.00;99.90
34099;DHT22;20374;49.474;10.944;2022-09-09T03:39:25;12.90;99.90
34099;DHT22;20374;49.474;10.944;2022-09-09T03:41:51;12.90;99.90
34099;DHT22;20374;49.474;10.944;2022-09-09T03:44:17;12.90;99.90
34099;DHT22;20374;49.474;10.944;2022-09-09T03:46:43;12.90;99.90
34099;DHT22;20374;49.474;10.944;2022-09-09T03:49:09;12.90;99.90
34099;DHT22;20374;49.474;10.944;2022-09-09T03:51:36;12.80;99.90
34099;DHT22;20374;49.474;10.944;2022-09-09T03:54:03;12.80;99.90
34099;DHT22;20374;49.474;10.944;2022-09-09T03:56:31;12.80;99.90
34099;DHT22;20374;49.474;10.944;2022-09-09T03:58:57;12.80;99.90
34099;DHT22;20374;49.474;10.944;2022-09-09T04:01:24;12.90;99.90
34099;DHT22;20374;49.474;10.944;2022-09-09T04:03:50;13.00;99.90
34099;DHT22;20374;49.474;10.944;2022-09-09T04:06:17;13.00;99.90
34099;DHT22;20374;49.474;10.944;2022-09-09T04:08:45;12.90;99.90
34099;DHT22;20374;49.474;10.944;2022-09-09T04:11:15;13.00;99.90
34099;DHT22;20374;49.474;10.944;2022-09-09T04:13:41;12.90;99.90
34099;DHT22;20374;49.474;10.944;2022-09-09T04:16:11;13.00;99.90
34099;DHT22;20374;49.474;10.944;2022-09-09T04:18:39;13.10;99.90
34099;DHT22;20374;49.474;10.944;2022-09-09T04:21:06;13.00;99.90
34099;DHT22;20374;49.474;10.944;2022-09-09T04:23:34;12.90;99.90
34099;DHT22;20374;49.474;10.944;2022-09-09T04:26:02;12.90;99.90
34099;DHT22;20374;49.474;10.944;2022-09-09T04:28:31;12.90;99.90
34099;DHT22;20374;49.474;10.944;2022-09-09T04:31:07;12.90;99.90
34099;DHT22;20374;49.474;10.944;2022-09-09T04:33:35;12.90;99.90
34099;DHT22;20374;49.474;10.944;2022-09-09T04:36:01;12.90;99.90
34099;DHT22;20374;49.474;10.944;2022-09-09T04:38:28;12.90;99.90
34099;DHT22;20374;49.474;10.944;2022-09-09T04:40:55;12.90;99.90
34099;DHT22;20374;49.474;10.944;2022-09-09T04:43:22;12.90;99.90
34099;DHT22;20374;49.474;10.944;2022-09-09T04:45:50;12.90;99.90
34099;DHT22;20374;49.474;10.944;2022-09-09T04:48:20;13.00;99.90
34099;DHT22;20374;49.474;10.944;2022-09-09T04:50:59;13.10;99.90
34099;DHT22;20374;49.474;10.944;2022-09-09T04:53:26;12.90;99.90
34099;DHT22;20374;49.474;10.944;2022-09-09T04:56:00;12.90;99.90
34099;DHT22;20374;49.474;10.944;2022-09-09T04:58:27;12.90;99.90
34099;DHT22;20374;49.474;10.944;2022-09-09T05:00:53;12.90;99.90
34099;DHT22;20374;49.474;10.944;2022-09-09T05:03:20;12.90;99.90
34099;DHT22;20374;49.474;10.944;2022-09-09T05:05:46;13.00;99.90
34099;DHT22;20374;49.474;10.944;2022-09-09T05:08:13;13.00;99.90
34099;DHT22;20374;49.474;10.944;2022-09-09T05:10:39;13.10;99.90
34099;DHT22;20374;49.474;10.944;2022-09-09T05:13:08;13.00;99.90
34099;DHT22;20374;49.474;10.944;2022-09-09T05:15:34;13.10;99.90
34099;DHT22;20374;49.474;10.944;2022-09-09T05:18:02;13.10;99.90
34099;DHT22;20374;49.474;10.944;2022-09-09T05:20:30;13.10;99.90
34099;DHT22;20374;49.474;10.944;2022-09-09T05:22:58;13.10;99.90
34099;DHT22;20374;49.474;10.944;2022-09-09T05:25:28;13.10;99.90
34099;DHT22;20374;49.474;10.944;2022-09-09T05:27:55;13.10;99.90
34099;DHT22;20374;49.474;10.944;2022-09-09T05:30:22;13.20;99.90
34099;DHT22;20374;49.474;10.944;2022-09-09T05:32:52;13.30;99.90
34099;DHT22;20374;49.474;10.944;2022-09-09T05:35:18;13.30;99.90
34099;DHT22;20374;49.474;10.944;2022-09-09T05:37:45;13.30;99.90
34099;DHT22;20374;49.474;10.944;2022-09-09T05:40:12;13.40;99.90
34099;DHT22;20374;49.474;10.944;2022-09-09T05:42:39;13.40;99.90
34099;DHT22;20374;49.474;10.944;2022-09-09T05:45:07;13.40;99.90
34099;DHT22;20374;49.474;10.944;2022-09-09T05:47:34;13.40;99.90
34099;DHT22;20374;49.474;10.944;2022-09-09T05:50:00;13.50;99.90
34099;DHT22;20374;49.474;10.944;2022-09-09T05:52:26;13.50;99.90
34099;DHT22;20374;49.474;10.944;2022-09-09T05:54:52;13.40;99.90
34099;DHT22;20374;49.474;10.944;2022-09-09T05:57:20;13.40;99.90
34099;DHT22;20374;49.474;10.944;2022-09-09T05:59:46;13.70;99.90
34099;DHT22;20374;49.474;10.944;2022-09-09T06:02:13;13.50;99.90
34099;DHT22;20374;49.474;10.944;2022-09-09T06:04:39;13.50;99.90
34099;DHT22;20374;49.474;10.944;2022-09-09T06:07:05;13.50;99.90
34099;DHT22;20374;49.474;10.944;2022-09-09T06:09:31;13.70;99.90
34099;DHT22;20374;49.474;10.944;2022-09-09T06:11:57;14.20;99.90
34099;DHT22;20374;49.474;10.944;2022-09-09T06:14:24;15.10;99.90
34099;DHT22;20374;49.474;10.944;2022-09-09T06:16:52;16.40;99.90
34099;DHT22;20374;49.474;10.944;2022-09-09T06:19:21;17.40;99.90
34099;DHT22;20374;49.474;10.944;2022-09-09T06:21:48;18.60;99.90
34099;DHT22;20374;49.474;10.944;2022-09-09T06:24:15;19.70;99.90
34099;DHT22;20374;49.474;10.944;2022-09-09T06:26:44;20.60;99.90
34099;DHT22;20374;49.474;10.944;2022-09-09T06:29:14;21.20;99.90
34099;DHT22;20374;49.474;10.944;2022-09-09T06:31:41;20.60;99.90
34099;DHT22;20374;49.474;10.944;2022-09-09T06:34:14;19.30;99.90
34099;DHT22;20374;49.474;10.944;2022-09-09T06:36:44;18.50;99.90
34099;DHT22;20374;49.474;10.944;2022-09-09T06:39:12;17.60;99.90
34099;DHT22;20374;49.474;10.944;2022-09-09T06:41:39;17.10;99.90
34099;DHT22;20374;49.474;10.944;2022-09-09T06:44:09;16.60;99.90
34099;DHT22;20374;49.474;10.944;2022-09-09T06:46:41;16.20;99.90
34099;DHT22;20374;49.474;10.944;2022-09-09T06:49:09;16.10;99.90
34099;DHT22;20374;49.474;10.944;2022-09-09T06:51:37;16.00;99.90
34099;DHT22;20374;49.474;10.944;2022-09-09T06:54:11;16.20;99.90
34099;DHT22;20374;49.474;10.944;2022-09-09T06:56:39;16.20;99.90
34099;DHT22;20374;49.474;10.944;2022-09-09T06:59:14;16.10;99.90
34099;DHT22;20374;49.474;10.944;2022-09-09T07:01:42;15.90;99.90
34099;DHT22;20374;49.474;10.944;2022-09-09T07:04:19;15.70;99.90
34099;DHT22;20374;49.474;10.944;2022-09-09T07:06:45;15.60;99.90
34099;DHT22;20374;49.474;10.944;2022-09-09T07:09:19;15.40;99.90
34099;DHT22;20374;49.474;10.944;2022-09-09T07:11:50;15.40;99.90
34099;DHT22;20374;49.474;10.944;2022-09-09T07:14:19;15.40;99.90
34099;DHT22;20374;49.474;10.944;2022-09-09T07:16:51;15.30;99.90
34099;DHT22;20374;49.474;10.944;2022-09-09T07:19:17;15.30;99.90
34099;DHT22;20374;49.474;10.944;2022-09-09T07:21:46;15.20;99.90
34099;DHT22;20374;49.474;10.944;2022-09-09T07:24:14;15.10;99.90
34099;DHT22;20374;49.474;10.944;2022-09-09T07:26:42;15.40;99.90
34099;DHT22;20374;49.474;10.944;2022-09-09T07:29:10;15.80;99.90
34099;DHT22;20374;49.474;10.944;2022-09-09T07:31:40;16.40;99.90
34099;DHT22;20374;49.474;10.944;2022-09-09T07:34:10;16.80;99.90
34099;DHT22;20374;49.474;10.944;2022-09-09T07:36:38;17.40;99.90
34099;DHT22;20374;49.474;10.944;2022-09-09T07:39:09;17.80;99.90
34099;DHT22;20374;49.474;10.944;2022-09-09T07:41:46;18.10;99.90
34099;DHT22;20374;49.474;10.944;2022-09-09T07:44:20;18.30;99.90
34099;DHT22;20374;49.474;10.944;2022-09-09T07:46:59;18.60;99.90
34099;DHT22;20374;49.474;10.944;2022-09-09T07:49:32;18.70;99.90
34099;DHT22;20374;49.474;10.944;2022-09-09T07:51:59;19.00;99.90
34099;DHT22;20374;49.474;10.944;2022-09-09T07:54:24;19.50;99.90
34099;DHT22;20374;49.474;10.944;2022-09-09T07:56:52;20.80;99.90
34099;DHT22;20374;49.474;10.944;2022-09-09T07:59:22;21.50;99.90
34099;DHT22;20374;49.474;10.944;2022-09-09T08:01:52;21.80;98.80
34099;DHT22;20374;49.474;10.944;2022-09-09T08:04:25;21.40;99.40
34099;DHT22;20374;49.474;10.944;2022-09-09T08:06:54;21.00;99.90
34099;DHT22;20374;49.474;10.944;2022-09-09T08:09:23;20.50;99.90
34099;DHT22;20374;49.474;10.944;2022-09-09T08:11:58;20.10;99.90
34099;DHT22;20374;49.474;10.944;2022-09-09T08:14:25;20.00;99.90
34099;DHT22;20374;49.474;10.944;2022-09-09T08:16:51;19.70;99.90
34099;DHT22;20374;49.474;10.944;2022-09-09T08:19:21;19.70;99.90
34099;DHT22;20374;49.474;10.944;2022-09-09T08:21:48;19.60;99.90
34099;DHT22;20374;49.474;10.944;2022-09-09T08:24:14;19.70;99.90
34099;DHT22;20374;49.474;10.944;2022-09-09T08:26:46;19.60;99.90
34099;DHT22;20374;49.474;10.944;2022-09-09T08:29:14;19.50;99.90
34099;DHT22;20374;49.474;10.944;2022-09-09T08:31:53;19.40;99.90
34099;DHT22;20374;49.474;10.944;2022-09-09T08:34:21;19.60;99.90
34099;DHT22;20374;49.474;10.944;2022-09-09T08:36:50;19.40;99.90
34099;DHT22;20374;49.474;10.944;2022-09-09T08:39:19;19.30;99.90
34099;DHT22;20374;49.474;10.944;2022-09-09T08:42:19;19.30;99.90
34099;DHT22;20374;49.474;10.944;2022-09-09T08:45:18;19.20;99.90
34099;DHT22;20374;49.474;10.944;2022-09-09T08:47:55;19.20;99.90
34099;DHT22;20374;49.474;10.944;2022-09-09T08:50:27;19.30;99.90
34099;DHT22;20374;49.474;10.944;2022-09-09T08:56:00;19.30;99.90
34099;DHT22;20374;49.474;10.944;2022-09-09T08:58:45;19.30;99.90
34099;DHT22;20374;49.474;10.944;2022-09-09T09:10:00;19.60;99.90
34099;DHT22;20374;49.474;10.944;2022-09-09T09:12:37;19.60;99.90
34099;DHT22;20374;49.474;10.944;2022-09-09T09:15:16;19.70;99.90
34099;DHT22;20374;49.474;10.944;2022-09-09T09:17:44;19.90;99.90
34099;DHT22;20374;49.474;10.944;2022-09-09T09:20:14;19.90;99.90
34099;DHT22;20374;49.474;10.944;2022-09-09T09:22:52;19.90;99.90
34099;DHT22;20374;49.474;10.944;2022-09-09T09:25:27;20.10;99.90
34099;DHT22;20374;49.474;10.944;2022-09-09T09:28:01;20.20;99.90
34099;DHT22;20374;49.474;10.944;2022-09-09T09:30:42;20.40;99.90
34099;DHT22;20374;49.474;10.944;2022-09-09T09:33:18;20.40;99.90
34099;DHT22;20374;49.474;10.944;2022-09-09T09:35:49;20.30;99.20
34099;DHT22;20374;49.474;10.944;2022-09-09T09:38:19;20.30;99.20
34099;DHT22;20374;49.474;10.944;2022-09-09T09:40:56;20.40;99.20
34099;DHT22;20374;49.474;10.944;2022-09-09T09:43:31;20.60;98.80
34099;DHT22;20374;49.474;10.944;2022-09-09T09:46:04;20.70;99.10
34099;DHT22;20374;49.474;10.944;2022-09-09T09:48:30;20.80;98.70
34099;DHT22;20374;49.474;10.944;2022-09-09T09:51:00;20.90;98.10
34099;DHT22;20374;49.474;10.944;2022-09-09T09:53:29;21.00;98.50
34099;DHT22;20374;49.474;10.944;2022-09-09T09:56:00;20.90;99.10
34099;DHT22;20374;49.474;10.944;2022-09-09T09:58:30;20.70;99.20
34099;DHT22;20374;49.474;10.944;2022-09-09T10:00:58;20.40;99.20
34099;DHT22;20374;49.474;10.944;2022-09-09T10:03:32;20.10;99.60
34099;DHT22;20374;49.474;10.944;2022-09-09T10:06:04;20.00;99.40
34099;DHT22;20374;49.474;10.944;2022-09-09T10:08:33;19.80;99.30
34099;DHT22;20374;49.474;10.944;2022-09-09T10:16:51;19.90;99.90
34099;DHT22;20374;49.474;10.944;2022-09-09T10:19:32;19.90;99.90
34099;DHT22;20374;49.474;10.944;2022-09-09T10:22:04;19.90;99.90
34099;DHT22;20374;49.474;10.944;2022-09-09T10:27:36;19.80;99.90
34099;DHT22;20374;49.474;10.944;2022-09-09T10:30:32;20.00;99.90
34099;DHT22;20374;49.474;10.944;2022-09-09T10:33:13;20.30;99.40
34099;DHT22;20374;49.474;10.944;2022-09-09T10:35:58;20.50;99.50
34099;DHT22;20374;49.474;10.944;2022-09-09T10:39:02;20.30;99.10
34099;DHT22;20374;49.474;10.944;2022-09-09T10:57:46;21.30;97.40
34099;DHT22;20374;49.474;10.944;2022-09-09T11:00:20;21.40;98.20
34099;DHT22;20374;49.474;10.944;2022-09-09T11:03:15;21.70;95.90
34099;DHT22;20374;49.474;10.944;2022-09-09T11:05:47;21.90;96.30
34099;DHT22;20374;49.474;10.944;2022-09-09T11:08:29;22.10;96.00
34099;DHT22;20374;49.474;10.944;2022-09-09T11:11:07;22.30;94.70
34099;DHT22;20374;49.474;10.944;2022-09-09T11:16:19;21.90;94.40
34099;DHT22;20374;49.474;10.944;2022-09-09T11:18:46;21.50;94.10
34099;DHT22;20374;49.474;10.944;2022-09-09T11:21:21;21.30;93.90
34099;DHT22;20374;49.474;10.944;2022-09-09T11:24:01;21.10;94.30
34099;DHT22;20374;49.474;10.944;2022-09-09T11:26:39;21.00;95.10
34099;DHT22;20374;49.474;10.944;2022-09-09T11:35:00;20.90;96.00
34099;DHT22;20374;49.474;10.944;2022-09-09T11:37:58;21.20;96.70
34099;DHT22;20374;49.474;10.944;2022-09-09T11:40:28;21.50;95.00
34099;DHT22;20374;49.474;10.944;2022-09-09T11:43:13;21.80;94.10
34099;DHT22;20374;49.474;10.944;2022-09-09T11:45:42;21.80;94.90
34099;DHT22;20374;49.474;10.944;2022-09-09T11:48:33;21.70;94.70
34099;DHT22;20374;49.474;10.944;2022-09-09T11:51:08;21.60;94.00
34099;DHT22;20374;49.474;10.944;2022-09-09T11:53:46;21.50;95.00
34099;DHT22;20374;49.474;10.944;2022-09-09T11:56:24;21.20;95.50
34099;DHT22;20374;49.474;10.944;2022-09-09T12:04:28;20.80;95.90
34099;DHT22;20374;49.474;10.944;2022-09-09T12:07:01;20.80;96.30
34099;DHT22;20374;49.474;10.944;2022-09-09T12:09:40;20.80;95.40
34099;DHT22;20374;49.474;10.944;2022-09-09T12:17:22;20.80;96.00
34099;DHT22;20374;49.474;10.944;2022-09-09T12:20:21;20.90;95.60
34099;DHT22;20374;49.474;10.944;2022-09-09T12:28:04;21.20;94.10
34099;DHT22;20374;49.474;10.944;2022-09-09T12:33:17;21.40;92.20
34099;DHT22;20374;49.474;10.944;2022-09-09T12:35:45;21.30;92.50
34099;DHT22;20374;49.474;10.944;2022-09-09T12:38:17;21.10;92.90
34099;DHT22;20374;49.474;10.944;2022-09-09T12:40:55;21.00;93.50
34099;DHT22;20374;49.474;10.944;2022-09-09T12:43:23;20.80;94.00
34099;DHT22;20374;49.474;10.944;2022-09-09T12:45:53;20.70;94.30
34099;DHT22;20374;49.474;10.944;2022-09-09T12:48:36;20.50;94.00
34099;DHT22;20374;49.474;10.944;2022-09-09T12:51:07;20.40;94.30
34099;DHT22;20374;49.474;10.944;2022-09-09T12:53:42;20.30;95.90
34099;DHT22;20374;49.474;10.944;2022-09-09T12:56:17;19.90;98.10
34099;DHT22;20374;49.474;10.944;2022-09-09T12:58:47;19.30;99.90
34099;DHT22;20374;49.474;10.944;2022-09-09T13:01:41;18.60;99.90
34099;DHT22;20374;49.474;10.944;2022-09-09T13:04:20;18.10;99.90
34099;DHT22;20374;49.474;10.944;2022-09-09T13:06:48;17.60;99.90
34099;DHT22;20374;49.474;10.944;2022-09-09T13:09:15;17.20;99.90
34099;DHT22;20374;49.474;10.944;2022-09-09T13:11:52;16.80;99.90
34099;DHT22;20374;49.474;10.944;2022-09-09T13:14:28;16.40;99.90
34099;DHT22;20374;49.474;10.944;2022-09-09T13:16:59;16.20;99.90
34099;DHT22;20374;49.474;10.944;2022-09-09T13:19:26;16.30;99.90
34099;DHT22;20374;49.474;10.944;2022-09-09T13:21:54;16.50;99.90
34099;DHT22;20374;49.474;10.944;2022-09-09T13:24:30;16.70;99.90
34099;DHT22;20374;49.474;10.944;2022-09-09T13:26:59;17.00;99.90
34099;DHT22;20374;49.474;10.944;2022-09-09T13:29:27;17.20;99.90
34099;DHT22;20374;49.474;10.944;2022-09-09T13:31:54;17.30;99.90
34099;DHT22;20374;49.474;10.944;2022-09-09T13:34:31;17.50;99.90
34099;DHT22;20374;49.474;10.944;2022-09-09T13:37:31;17.60;99.90
34099;DHT22;20374;49.474;10.944;2022-09-09T13:39:58;17.70;99.90
34099;DHT22;20374;49.474;10.944;2022-09-09T13:42:26;17.70;99.90
34099;DHT22;20374;49.474;10.944;2022-09-09T13:44:53;17.60;99.90
34099;DHT22;20374;49.474;10.944;2022-09-09T13:47:37;17.60;99.90
34099;DHT22;20374;49.474;10.944;2022-09-09T13:50:23;17.70;99.90
34099;DHT22;20374;49.474;10.944;2022-09-09T13:52:59;17.70;99.90
34099;DHT22;20374;49.474;10.944;2022-09-09T13:55:29;17.80;99.90
34099;DHT22;20374;49.474;10.944;2022-09-09T13:57:57;17.80;99.90
34099;DHT22;20374;49.474;10.944;2022-09-09T14:00:24;17.90;99.90
34099;DHT22;20374;49.474;10.944;2022-09-09T14:02:50;18.00;99.90
34099;DHT22;20374;49.474;10.944;2022-09-09T14:05:19;18.10;99.90
34099;DHT22;20374;49.474;10.944;2022-09-09T14:07:46;18.20;99.90
34099;DHT22;20374;49.474;10.944;2022-09-09T14:10:12;18.20;99.90
34099;DHT22;20374;49.474;10.944;2022-09-09T14:12:38;18.40;99.90
34099;DHT22;20374;49.474;10.944;2022-09-09T14:15:06;18.50;99.90
34099;DHT22;20374;49.474;10.944;2022-09-09T14:17:33;18.60;99.90
34099;DHT22;20374;49.474;10.944;2022-09-09T14:19:59;18.70;99.90
34099;DHT22;20374;49.474;10.944;2022-09-09T14:22:25;18.80;99.90
34099;DHT22;20374;49.474;10.944;2022-09-09T14:24:51;18.80;99.90
34099;DHT22;20374;49.474;10.944;2022-09-09T14:27:17;18.90;99.90
34099;DHT22;20374;49.474;10.944;2022-09-09T14:29:44;18.90;99.90
34099;DHT22;20374;49.474;10.944;2022-09-09T14:32:11;18.90;99.90
34099;DHT22;20374;49.474;10.944;2022-09-09T14:34:37;18.90;99.90
34099;DHT22;20374;49.474;10.944;2022-09-09T14:37:03;18.80;99.90
34099;DHT22;20374;49.474;10.944;2022-09-09T14:39:30;18.70;99.90
34099;DHT22;20374;49.474;10.944;2022-09-09T14:41:56;18.60;99.90
34099;DHT22;20374;49.474;10.944;2022-09-09T14:44:22;18.60;99.90
34099;DHT22;20374;49.474;10.944;2022-09-09T14:46:48;18.60;99.90
34099;DHT22;20374;49.474;10.944;2022-09-09T14:49:15;18.60;99.90
34099;DHT22;20374;49.474;10.944;2022-09-09T14:51:41;18.50;99.90
34099;DHT22;20374;49.474;10.944;2022-09-09T14:54:07;18.50;99.90
34099;DHT22;20374;49.474;10.944;2022-09-09T14:56:34;18.50;99.90
34099;DHT22;20374;49.474;10.944;2022-09-09T14:59:00;18.60;99.90
34099;DHT22;20374;49.474;10.944;2022-09-09T15:01:27;18.80;99.90
34099;DHT22;20374;49.474;10.944;2022-09-09T15:03:55;19.00;99.90
34099;DHT22;20374;49.474;10.944;2022-09-09T15:06:24;19.10;99.90
34099;DHT22;20374;49.474;10.944;2022-09-09T15:08:52;19.10;99.90
34099;DHT22;20374;49.474;10.944;2022-09-09T15:11:18;19.00;99.90
34099;DHT22;20374;49.474;10.944;2022-09-09T15:13:45;19.00;99.90
34099;DHT22;20374;49.474;10.944;2022-09-09T15:16:17;19.10;99.90
34099;DHT22;20374;49.474;10.944;2022-09-09T15:18:45;19.00;99.90
34099;DHT22;20374;49.474;10.944;2022-09-09T15:21:13;18.90;99.90
34099;DHT22;20374;49.474;10.944;2022-09-09T15:23:40;18.80;99.90
34099;DHT22;20374;49.474;10.944;2022-09-09T15:26:06;18.80;99.90
34099;DHT22;20374;49.474;10.944;2022-09-09T15:28:33;18.70;99.90
34099;DHT22;20374;49.474;10.944;2022-09-09T15:31:11;18.70;99.90
34099;DHT22;20374;49.474;10.944;2022-09-09T15:33:38;18.70;99.90
34099;DHT22;20374;49.474;10.944;2022-09-09T15:36:22;18.80;99.90
34099;DHT22;20374;49.474;10.944;2022-09-09T15:38:48;18.70;99.90
34099;DHT22;20374;49.474;10.944;2022-09-09T15:41:15;18.90;99.90
34099;DHT22;20374;49.474;10.944;2022-09-09T15:43:46;19.00;99.90
34099;DHT22;20374;49.474;10.944;2022-09-09T15:48:45;19.20;99.90
34099;DHT22;20374;49.474;10.944;2022-09-09T15:51:11;19.10;99.90
34099;DHT22;20374;49.474;10.944;2022-09-09T15:53:37;19.10;99.90
34099;DHT22;20374;49.474;10.944;2022-09-09T15:56:08;19.10;99.90
34099;DHT22;20374;49.474;10.944;2022-09-09T15:58:35;19.00;99.80
34099;DHT22;20374;49.474;10.944;2022-09-09T16:01:07;19.10;99.90
34099;DHT22;20374;49.474;10.944;2022-09-09T16:03:37;19.20;99.30
34099;DHT22;20374;49.474;10.944;2022-09-09T16:06:04;19.10;99.30
34099;DHT22;20374;49.474;10.944;2022-09-09T16:08:39;19.00;99.20
34099;DHT22;20374;49.474;10.944;2022-09-09T16:11:07;18.90;99.90
34099;DHT22;20374;49.474;10.944;2022-09-09T16:13:36;18.80;99.80
34099;DHT22;20374;49.474;10.944;2022-09-09T16:16:03;18.80;99.90
34099;DHT22;20374;49.474;10.944;2022-09-09T16:18:38;18.80;99.90
34099;DHT22;20374;49.474;10.944;2022-09-09T16:21:04;18.90;99.70
34099;DHT22;20374;49.474;10.944;2022-09-09T16:23:37;18.90;99.90
34099;DHT22;20374;49.474;10.944;2022-09-09T16:26:03;18.90;99.20
34099;DHT22;20374;49.474;10.944;2022-09-09T16:28:29;18.90;99.50
34099;DHT22;20374;49.474;10.944;2022-09-09T16:30:55;18.90;99.90
34099;DHT22;20374;49.474;10.944;2022-09-09T16:33:21;18.90;99.70
34099;DHT22;20374;49.474;10.944;2022-09-09T16:35:48;18.90;99.40
34099;DHT22;20374;49.474;10.944;2022-09-09T16:38:15;18.90;99.90
34099;DHT22;20374;49.474;10.944;2022-09-09T16:40:41;18.90;99.90
34099;DHT22;20374;49.474;10.944;2022-09-09T16:43:07;18.90;99.90
34099;DHT22;20374;49.474;10.944;2022-09-09T16:45:41;18.90;99.90
34099;DHT22;20374;49.474;10.944;2022-09-09T16:48:07;18.80;99.90
34099;DHT22;20374;49.474;10.944;2022-09-09T16:50:33;18.80;99.90
34099;DHT22;20374;49.474;10.944;2022-09-09T16:52:59;18.70;99.90
34099;DHT22;20374;49.474;10.944;2022-09-09T16:55:28;18.60;99.90
34099;DHT22;20374;49.474;10.944;2022-09-09T16:57:54;18.50;99.90
34099;DHT22;20374;49.474;10.944;2022-09-09T17:00:20;18.50;99.90
34099;DHT22;20374;49.474;10.944;2022-09-09T17:02:48;18.50;99.90
34099;DHT22;20374;49.474;10.944;2022-09-09T17:05:14;18.40;99.90
34099;DHT22;20374;49.474;10.944;2022-09-09T17:07:40;18.30;99.90
34099;DHT22;20374;49.474;10.944;2022-09-09T17:10:07;18.30;99.90
34099;DHT22;20374;49.474;10.944;2022-09-09T17:12:33;18.10;99.90
34099;DHT22;20374;49.474;10.944;2022-09-09T17:15:01;18.10;99.90
34099;DHT22;20374;49.474;10.944;2022-09-09T17:17:28;18.00;99.90
34099;DHT22;20374;49.474;10.944;2022-09-09T17:19:54;18.00;99.90
34099;DHT22;20374;49.474;10.944;2022-09-09T17:22:20;17.90;99.90
34099;DHT22;20374;49.474;10.944;2022-09-09T17:24:47;17.80;99.90
34099;DHT22;20374;49.474;10.944;2022-09-09T17:27:13;17.80;99.90
34099;DHT22;20374;49.474;10.944;2022-09-09T17:29:39;17.70;99.90
34099;DHT22;20374;49.474;10.944;2022-09-09T17:32:05;17.60;99.90
34099;DHT22;20374;49.474;10.944;2022-09-09T17:34:33;17.70;99.90
34099;DHT22;20374;49.474;10.944;2022-09-09T17:36:59;17.70;99.90
34099;DHT22;20374;49.474;10.944;2022-09-09T17:39:26;17.60;99.90
34099;DHT22;20374;49.474;10.944;2022-09-09T17:41:52;17.60;99.90
34099;DHT22;20374;49.474;10.944;2022-09-09T17:44:19;17.50;99.90
34099;DHT22;20374;49.474;10.944;2022-09-09T17:46:45;17.50;99.90
34099;DHT22;20374;49.474;10.944;2022-09-09T17:49:14;17.30;99.90